createdAt,value
2023-05-20T00:01:58.739Z,100.00
2023-05-20T00:12:01.644Z,100.00
2023-05-20T00:22:06.968Z,100.00
2023-05-20T00:32:10.690Z,100.00
2023-05-20T00:42:20.443Z,100.00
2023-05-20T00:52:25.148Z,100.00
2023-05-20T01:02:31.424Z,100.00
2023-05-20T01:12:39.377Z,100.00
2023-05-20T01:22:54.249Z,100.00
2023-05-20T01:33:02.856Z,100.00
2023-05-20T01:43:06.412Z,100.00
2023-05-20T01:53:11.134Z,100.00
2023-05-20T02:03:18.596Z,100.00
2023-05-20T02:13:20.869Z,100.00
2023-05-20T02:23:23.931Z,100.00
2023-05-20T02:33:29.409Z,100.00
2023-05-20T02:43:33.123Z,100.00
2023-05-20T02:53:37.507Z,100.00
2023-05-20T03:03:41.077Z,100.00
2023-05-20T03:13:43.441Z,100.00
2023-05-20T03:23:46.985Z,100.00
2023-05-20T03:33:52.017Z,100.00
2023-05-20T03:43:54.437Z,100.00
2023-05-20T03:53:56.698Z,100.00
2023-05-20T04:04:01.426Z,100.00
2023-05-20T04:14:05.949Z,100.00
2023-05-20T04:24:09.428Z,100.00
2023-05-20T04:34:15.187Z,100.00
2023-05-20T04:44:18.107Z,100.00
2023-05-20T04:54:20.575Z,100.00
2023-05-20T05:04:25.399Z,100.00
2023-05-20T05:14:27.660Z,100.00
2023-05-20T05:24:31.147Z,100.00
2023-05-20T05:34:36.145Z,100.00
2023-05-20T05:44:43.591Z,94.33
2023-05-20T05:54:48.336Z,93.30
2023-05-20T06:04:53.108Z,90.57
2023-05-20T06:14:57.569Z,88.28
2023-05-20T06:25:02.744Z,85.01
2023-05-20T06:35:07.215Z,81.40
2023-05-20T06:45:12.068Z,75.27
2023-05-20T06:55:21.228Z,72.63
2023-05-20T07:05:29.299Z,68.70
2023-05-20T07:15:36.362Z,68.13
2023-05-20T07:25:43.424Z,65.97
2023-05-20T07:35:48.036Z,63.22
2023-05-20T07:45:53.910Z,61.51
2023-05-20T07:55:59.195Z,59.06
2023-05-20T08:06:04.106Z,58.34
2023-05-20T08:16:10.502Z,58.37
2023-05-20T08:26:14.057Z,57.18
2023-05-20T08:36:19.843Z,54.64
2023-05-20T08:46:27.585Z,55.03
2023-05-20T08:56:34.823Z,53.36
2023-05-20T09:06:49.462Z,56.94
2023-05-20T09:16:53.883Z,57.46
2023-05-20T09:26:56.666Z,59.52
2023-05-20T09:36:59.764Z,59.16
2023-05-20T09:47:02.636Z,59.01
2023-05-20T09:57:10.006Z,59.17
2023-05-20T10:07:41.822Z,58.78
2023-05-20T10:18:13.260Z,60.50
2023-05-20T10:28:15.608Z,61.73
2023-05-20T10:38:21.587Z,59.53
2023-05-20T10:48:24.844Z,59.03
2023-05-20T10:58:29.914Z,59.00
2023-05-20T11:08:33.162Z,58.99
2023-05-20T11:18:37.621Z,58.88
2023-05-20T11:28:40.336Z,58.52
2023-05-20T11:38:47.228Z,57.51
2023-05-20T11:48:56.851Z,55.09
2023-05-20T11:59:01.822Z,55.27
2023-05-20T12:09:14.399Z,54.78
2023-05-20T12:19:22.179Z,55.69
2023-05-20T12:29:27.843Z,56.78
2023-05-20T12:39:31.207Z,56.14
2023-05-20T12:49:35.926Z,56.36
2023-05-20T12:59:42.788Z,56.62
2023-05-20T13:09:47.245Z,57.40
2023-05-20T13:19:52.180Z,57.14
2023-05-20T13:29:58.960Z,57.15
2023-05-20T13:40:03.429Z,58.00
2023-05-20T13:50:08.467Z,58.18
2023-05-20T14:00:13.853Z,58.22
2023-05-20T14:10:16.070Z,56.73
2023-05-20T14:20:18.622Z,56.50
2023-05-20T14:30:23.826Z,56.18
2023-05-20T14:40:31.345Z,55.01
2023-05-20T14:50:36.396Z,55.59
2023-05-20T15:00:43.165Z,55.88
2023-05-20T15:10:47.975Z,55.95
2023-05-20T15:20:50.262Z,55.59
2023-05-20T15:30:57.140Z,55.76
2023-05-20T15:41:02.514Z,55.77
2023-05-20T15:51:09.858Z,56.34
2023-05-20T16:01:14.598Z,56.10
2023-05-20T16:11:16.821Z,55.52
2023-05-20T16:21:25.323Z,55.76
2023-05-20T16:31:30.776Z,55.86
2023-05-20T16:41:35.170Z,55.91
2023-05-20T16:51:37.432Z,56.39
2023-05-20T17:01:40.308Z,56.98
2023-05-20T17:11:46.131Z,56.61
2023-05-20T17:21:48.360Z,55.86
2023-05-20T17:31:52.981Z,55.84
2023-05-20T17:41:55.779Z,55.97
2023-05-20T17:51:58.099Z,54.32
2023-05-20T18:02:06.542Z,54.77
2023-05-20T18:12:09.635Z,54.54
2023-05-20T18:22:14.617Z,54.69
2023-05-20T18:32:19.299Z,54.81
2023-05-20T18:42:24.060Z,55.41
2023-05-20T18:52:26.270Z,55.81
2023-05-20T19:02:35.751Z,56.57
2023-05-20T19:12:43.824Z,57.54
2023-05-20T19:22:48.253Z,58.07
2023-05-20T19:33:06.155Z,58.49
2023-05-20T19:43:11.499Z,58.88
2023-05-20T19:53:16.328Z,58.84
2023-05-20T20:03:20.896Z,59.24
2023-05-20T20:13:26.084Z,59.92
2023-05-20T20:23:28.405Z,59.70
2023-05-20T20:33:35.542Z,62.64
2023-05-20T20:43:40.281Z,67.71
2023-05-20T20:53:43.332Z,70.79
2023-05-20T21:03:48.777Z,72.13
2023-05-20T21:13:53.449Z,72.86
2023-05-20T21:23:56.852Z,72.55
2023-05-20T21:33:59.234Z,72.22
2023-05-20T21:44:04.055Z,72.11
2023-05-20T21:54:06.285Z,71.21
2023-05-20T22:04:08.548Z,70.69
2023-05-20T22:14:20.150Z,70.86
2023-05-20T22:24:22.636Z,71.00
2023-05-20T22:34:24.872Z,70.41
2023-05-20T22:44:29.542Z,67.52
2023-05-20T22:54:36.496Z,66.42
2023-05-20T23:04:39.174Z,66.79
2023-05-20T23:14:41.909Z,67.60
2023-05-20T23:24:44.036Z,67.63
2023-05-20T23:34:53.069Z,67.27
2023-05-20T23:44:58.005Z,67.47
2023-05-20T23:55:02.512Z,67.40
